createdAt,value
2019-05-22T00:02:28.587Z,2.17
2019-05-22T00:05:15.927Z,2.20
2019-05-22T00:07:45.134Z,2.27
2019-05-22T00:10:16.206Z,2.12
2019-05-22T00:12:46.987Z,2.42
2019-05-22T00:15:17.246Z,2.25
2019-05-22T00:17:47.552Z,2.10
2019-05-22T00:20:16.627Z,2.20
2019-05-22T00:22:49.027Z,2.20
2019-05-22T00:25:21.088Z,2.12
2019-05-22T00:27:50.606Z,2.30
2019-05-22T00:30:22.647Z,2.10
2019-05-22T00:32:51.526Z,2.20
2019-05-22T00:35:21.997Z,2.20
2019-05-22T00:37:52.526Z,2.20
2019-05-22T00:40:24.598Z,2.30
2019-05-22T00:43:04.324Z,2.25
2019-05-22T00:45:31.547Z,2.37
2019-05-22T00:48:00.486Z,2.37
2019-05-22T00:50:33.241Z,2.27
2019-05-22T00:53:03.667Z,2.40
2019-05-22T00:55:40.446Z,2.20
2019-05-22T00:58:12.187Z,2.33
2019-05-22T01:00:45.455Z,2.22
2019-05-22T01:03:17.347Z,2.10
2019-05-22T01:05:47.848Z,2.30
2019-05-22T01:08:16.666Z,2.40
2019-05-22T01:10:47.766Z,2.52
2019-05-22T01:13:18.466Z,2.10
2019-05-22T01:18:17.354Z,2.35
2019-05-22T01:20:48.987Z,2.20
2019-05-22T01:23:19.346Z,2.25
2019-05-22T01:25:49.367Z,2.40
2019-05-22T01:28:21.515Z,2.30
2019-05-22T01:30:59.186Z,2.08
2019-05-22T01:33:32.706Z,2.10
2019-05-22T01:36:03.130Z,2.20
2019-05-22T01:38:32.007Z,2.02
2019-05-22T01:41:11.369Z,1.90
2019-05-22T01:43:43.966Z,2.30
2019-05-22T01:46:14.467Z,2.20
2019-05-22T01:48:43.206Z,1.85
2019-05-22T01:51:14.746Z,2.15
2019-05-22T01:53:44.111Z,2.02
2019-05-22T01:56:14.068Z,2.02
2019-05-22T01:58:45.669Z,2.02
2019-05-22T02:01:17.126Z,1.98
2019-05-22T02:03:47.859Z,2.02
2019-05-22T02:09:00.488Z,2.40
2019-05-22T02:11:30.514Z,2.00
2019-05-22T02:14:05.647Z,2.08
2019-05-22T02:16:34.606Z,2.35
2019-05-22T02:19:03.326Z,1.98
2019-05-22T02:21:35.108Z,2.45
2019-05-22T02:24:05.166Z,2.05
2019-05-22T02:26:34.652Z,2.02
2019-05-22T02:29:05.257Z,1.90
2019-05-22T02:34:04.148Z,2.15
2019-05-22T02:36:34.547Z,2.22
2019-05-22T02:39:04.868Z,2.00
2019-05-22T02:41:42.794Z,2.02
2019-05-22T02:44:13.027Z,2.05
2019-05-22T02:46:42.008Z,2.12
2019-05-22T02:49:12.029Z,2.30
2019-05-22T02:51:42.646Z,1.70
2019-05-22T02:54:11.551Z,2.27
2019-05-22T02:56:43.624Z,2.20
2019-05-22T02:59:13.867Z,2.30
2019-05-22T03:01:43.590Z,2.22
2019-05-22T03:04:14.469Z,2.03
2019-05-22T03:06:43.887Z,2.27
2019-05-22T03:09:16.046Z,1.70
2019-05-22T03:11:59.807Z,2.05
2019-05-22T03:14:31.071Z,2.00
2019-05-22T03:17:05.047Z,2.00
2019-05-22T03:19:45.704Z,1.98
2019-05-22T03:22:28.007Z,2.20
2019-05-22T03:24:59.049Z,2.00
2019-05-22T03:27:40.149Z,1.98
2019-05-22T03:30:13.648Z,1.92
2019-05-22T03:32:44.626Z,1.85
2019-05-22T03:35:15.809Z,1.90
2019-05-22T03:37:45.728Z,2.00
2019-05-22T03:40:14.639Z,1.90
2019-05-22T03:42:44.235Z,1.90
2019-05-22T03:45:13.947Z,2.20
2019-05-22T03:47:44.766Z,1.90
2019-05-22T03:50:15.609Z,2.00
2019-05-22T03:52:48.207Z,1.85
2019-05-22T03:55:17.289Z,1.80
2019-05-22T03:57:46.386Z,1.80
2019-05-22T04:00:22.227Z,1.72
2019-05-22T04:02:52.248Z,2.02
2019-05-22T04:05:23.315Z,1.92
2019-05-22T04:07:53.109Z,1.92
2019-05-22T04:10:23.488Z,1.90
2019-05-22T04:12:54.187Z,1.77
2019-05-22T04:15:23.149Z,1.90
2019-05-22T04:17:53.469Z,1.80
2019-05-22T04:20:23.391Z,2.00
2019-05-22T04:22:59.870Z,2.00
2019-05-22T04:25:31.707Z,2.00
2019-05-22T04:28:02.765Z,2.02
2019-05-22T04:30:32.986Z,1.72
2019-05-22T04:33:03.408Z,1.80
2019-05-22T04:35:34.358Z,1.90
2019-05-22T04:38:04.008Z,1.95
2019-05-22T04:40:39.094Z,1.90
2019-05-22T04:43:08.090Z,1.95
2019-05-22T04:45:39.349Z,1.80
2019-05-22T04:48:08.731Z,1.90
2019-05-22T04:50:38.207Z,1.85
2019-05-22T04:53:07.008Z,2.10
2019-05-22T04:55:37.354Z,1.70
2019-05-22T04:58:07.986Z,2.00
2019-05-22T05:03:05.891Z,1.87
2019-05-22T05:05:44.197Z,1.82
2019-05-22T05:08:15.526Z,1.87
2019-05-22T05:10:48.610Z,2.17
2019-05-22T05:13:17.927Z,1.77
2019-05-22T05:15:46.606Z,1.90
2019-05-22T05:18:18.150Z,2.10
2019-05-22T05:20:48.267Z,1.90
2019-05-22T05:23:17.054Z,2.08
2019-05-22T05:25:47.977Z,1.90
2019-05-22T05:28:16.987Z,2.00
2019-05-22T05:30:47.948Z,1.95
2019-05-22T05:33:16.647Z,2.30
2019-05-22T05:35:46.626Z,1.90
2019-05-22T05:38:16.226Z,1.80
2019-05-22T05:40:45.671Z,1.98
2019-05-22T05:43:17.489Z,2.05
2019-05-22T05:45:48.710Z,2.00
2019-05-22T05:48:20.707Z,2.17
2019-05-22T05:51:08.767Z,1.87
2019-05-22T05:53:57.126Z,1.77
2019-05-22T05:56:26.006Z,1.90
2019-05-22T05:58:56.516Z,2.02
2019-05-22T06:01:32.668Z,1.65
2019-05-22T06:04:03.007Z,1.90
2019-05-22T06:06:39.571Z,1.90
2019-05-22T06:09:09.824Z,1.77
2019-05-22T06:11:53.307Z,1.70
2019-05-22T06:14:30.411Z,1.80
2019-05-22T06:17:09.847Z,1.82
2019-05-22T06:19:45.726Z,1.80
2019-05-22T06:22:16.848Z,1.70
2019-05-22T06:24:52.490Z,1.72
2019-05-22T06:27:25.729Z,1.80
2019-05-22T06:30:11.806Z,1.87
2019-05-22T06:33:10.966Z,1.70
2019-05-22T06:35:40.287Z,1.80
2019-05-22T06:38:18.130Z,1.85
2019-05-22T06:40:47.407Z,1.80
2019-05-22T06:43:27.195Z,1.90
2019-05-22T06:45:56.390Z,1.80
2019-05-22T06:48:25.337Z,1.70
2019-05-22T06:50:54.507Z,1.60
2019-05-22T06:53:24.546Z,1.60
2019-05-22T06:55:53.946Z,1.70
2019-05-22T06:58:22.987Z,1.80
2019-05-22T07:00:52.407Z,1.80
2019-05-22T07:03:21.348Z,2.00
2019-05-22T07:05:51.016Z,2.00
2019-05-22T07:08:20.649Z,1.80
2019-05-22T07:10:50.328Z,1.70
2019-05-22T07:13:20.090Z,1.60
2019-05-22T07:15:50.666Z,1.60
2019-05-22T07:18:20.406Z,1.70
2019-05-22T07:20:51.508Z,1.70
2019-05-22T07:23:22.041Z,1.90
2019-05-22T07:25:52.826Z,1.80
2019-05-22T07:28:23.528Z,1.80
2019-05-22T07:33:23.367Z,1.80
2019-05-22T07:36:09.279Z,1.55
2019-05-22T07:38:25.629Z,1.80
2019-05-22T07:40:55.738Z,1.70
2019-05-22T07:43:25.868Z,1.60
2019-05-22T07:45:55.796Z,1.40
2019-05-22T07:48:27.686Z,1.67
2019-05-22T07:50:57.313Z,1.62
2019-05-22T07:53:26.163Z,1.70
2019-05-22T07:55:55.551Z,1.75
2019-05-22T07:58:26.173Z,1.60
2019-05-22T08:00:59.965Z,1.95
2019-05-22T08:03:30.978Z,1.70
2019-05-22T08:06:01.963Z,1.80
2019-05-22T08:08:33.274Z,1.67
2019-05-22T08:11:02.568Z,1.75
2019-05-22T08:13:33.354Z,1.60
2019-05-22T08:18:32.389Z,1.65
2019-05-22T08:21:01.287Z,1.67
2019-05-22T08:23:31.809Z,1.80
2019-05-22T08:26:00.609Z,1.55
2019-05-22T08:28:30.646Z,1.70
2019-05-22T08:31:00.003Z,1.60
2019-05-22T08:33:28.918Z,1.75
2019-05-22T08:35:59.322Z,1.65
2019-05-22T08:38:30.310Z,1.80
2019-05-22T08:41:00.989Z,1.70
2019-05-22T08:45:58.048Z,1.62
2019-05-22T08:48:27.548Z,2.05
2019-05-22T08:50:57.586Z,1.75
2019-05-22T08:53:26.787Z,1.92
2019-05-22T08:55:55.887Z,1.90
2019-05-22T08:58:27.328Z,1.95
2019-05-22T09:00:56.627Z,1.80
2019-05-22T09:03:25.747Z,2.00
2019-05-22T09:05:54.626Z,1.70
2019-05-22T09:08:23.927Z,1.70
2019-05-22T09:10:54.446Z,2.00
2019-05-22T09:13:25.434Z,1.67
2019-05-22T09:15:55.235Z,1.70
2019-05-22T09:18:24.449Z,1.60
2019-05-22T09:20:53.254Z,1.80
2019-05-22T09:23:22.307Z,1.62
2019-05-22T09:25:51.687Z,1.67
2019-05-22T09:28:20.687Z,1.60
2019-05-22T09:30:52.666Z,1.90
2019-05-22T09:33:21.907Z,1.50
2019-05-22T09:35:51.171Z,1.90
2019-05-22T09:38:21.791Z,1.80
2019-05-22T09:40:50.866Z,1.80
2019-05-22T09:43:19.670Z,2.10
2019-05-22T09:45:48.566Z,1.90
2019-05-22T09:48:17.967Z,1.92
2019-05-22T09:50:49.287Z,1.70
2019-05-22T09:53:19.533Z,1.77
2019-05-22T09:55:48.434Z,1.80
2019-05-22T09:58:17.462Z,1.90
2019-05-22T10:00:48.273Z,2.10
2019-05-22T10:05:45.275Z,2.02
2019-05-22T10:08:15.935Z,1.87
2019-05-22T10:10:50.107Z,2.00
2019-05-22T10:13:19.195Z,1.87
2019-05-22T10:15:48.207Z,1.90
2019-05-22T10:18:18.982Z,1.98
2019-05-22T10:23:16.549Z,1.80
2019-05-22T10:25:45.826Z,2.00
2019-05-22T10:28:16.529Z,1.80
2019-05-22T10:30:45.587Z,1.70
2019-05-22T10:33:15.975Z,1.80
2019-05-22T10:35:46.428Z,2.00
2019-05-22T10:38:15.650Z,1.85
2019-05-22T10:40:44.627Z,1.80
2019-05-22T10:43:13.507Z,1.98
2019-05-22T10:45:43.866Z,1.70
2019-05-22T10:48:12.727Z,2.40
2019-05-22T10:50:41.728Z,2.20
2019-05-22T10:53:12.407Z,2.47
2019-05-22T10:58:10.630Z,2.42
2019-05-22T11:00:39.703Z,2.67
2019-05-22T11:03:10.430Z,2.60
2019-05-22T11:05:40.966Z,2.45
2019-05-22T11:08:10.509Z,2.85
2019-05-22T11:10:39.629Z,2.62
2019-05-22T11:13:08.926Z,2.60
2019-05-22T11:15:38.634Z,2.72
2019-05-22T11:18:08.838Z,2.75
2019-05-22T11:20:37.827Z,2.65
2019-05-22T11:23:07.140Z,2.83
2019-05-22T11:25:37.553Z,2.55
2019-05-22T11:28:06.567Z,2.70
2019-05-22T11:30:36.146Z,2.50
2019-05-22T11:33:05.147Z,2.55
2019-05-22T11:35:34.347Z,2.67
2019-05-22T11:38:03.353Z,2.80
2019-05-22T11:40:32.681Z,2.40
2019-05-22T11:43:01.726Z,2.35
2019-05-22T11:45:31.029Z,2.75
2019-05-22T11:48:00.128Z,2.40
2019-05-22T11:50:30.567Z,2.40
2019-05-22T11:52:59.366Z,2.60
2019-05-22T11:55:42.812Z,2.40
2019-05-22T11:57:59.071Z,2.67
2019-05-22T12:00:27.966Z,2.72
2019-05-22T12:02:59.570Z,2.60
2019-05-22T12:05:28.407Z,3.33
2019-05-22T12:07:57.469Z,3.50
2019-05-22T12:10:26.512Z,4.40
2019-05-22T12:12:55.504Z,5.40
2019-05-22T12:15:25.396Z,6.97
2019-05-22T12:17:54.467Z,6.03
2019-05-22T12:20:24.728Z,5.80
2019-05-22T12:22:53.511Z,6.15
2019-05-22T12:25:24.246Z,6.42
2019-05-22T12:30:21.539Z,6.15
2019-05-22T12:32:50.550Z,5.40
2019-05-22T12:35:19.488Z,5.70
2019-05-22T12:37:48.706Z,5.72
2019-05-22T12:40:19.486Z,5.58
2019-05-22T12:42:48.857Z,5.47
2019-05-22T12:45:25.850Z,5.03
2019-05-22T12:47:54.714Z,5.92
2019-05-22T12:50:24.406Z,5.50
2019-05-22T12:52:53.508Z,5.30
2019-05-22T12:55:22.432Z,5.15
2019-05-22T12:57:51.910Z,5.20
2019-05-22T13:00:24.080Z,6.10
2019-05-22T13:02:54.530Z,5.05
2019-05-22T13:05:24.831Z,5.00
2019-05-22T13:07:53.654Z,5.50
2019-05-22T13:10:23.666Z,4.65
2019-05-22T13:12:52.530Z,5.25
2019-05-22T13:15:22.226Z,5.33
2019-05-22T13:17:51.525Z,4.95
2019-05-22T13:20:40.590Z,4.85
2019-05-22T13:22:53.007Z,5.15
2019-05-22T13:25:22.607Z,4.90
2019-05-22T13:27:51.518Z,4.72
2019-05-22T13:30:22.136Z,4.67
2019-05-22T13:32:51.327Z,4.90
2019-05-22T13:35:20.009Z,5.10
2019-05-22T13:37:48.987Z,4.60
2019-05-22T13:40:26.995Z,4.83
2019-05-22T13:42:48.547Z,4.53
2019-05-22T13:45:28.746Z,4.87
2019-05-22T13:47:47.946Z,5.03
2019-05-22T13:50:17.327Z,4.67
2019-05-22T13:52:46.552Z,4.50
2019-05-22T13:55:16.148Z,4.72
2019-05-22T13:57:45.050Z,4.70
2019-05-22T14:00:17.207Z,4.25
2019-05-22T14:02:46.002Z,4.65
2019-05-22T14:05:16.552Z,4.72
2019-05-22T14:07:45.941Z,4.62
2019-05-22T14:10:15.626Z,4.70
2019-05-22T14:12:44.526Z,4.62
2019-05-22T14:15:13.368Z,4.60
2019-05-22T14:17:43.648Z,4.65
2019-05-22T14:20:13.589Z,4.17
2019-05-22T14:22:43.486Z,4.53
2019-05-22T14:25:12.267Z,4.58
2019-05-22T14:27:42.913Z,4.78
2019-05-22T14:30:14.968Z,4.28
2019-05-22T14:32:44.183Z,4.75
2019-05-22T14:35:14.087Z,4.12
2019-05-22T14:37:43.086Z,4.67
2019-05-22T14:40:13.506Z,4.50
2019-05-22T14:42:43.427Z,4.45
2019-05-22T14:45:12.206Z,4.60
2019-05-22T14:47:42.426Z,4.47
2019-05-22T14:50:13.069Z,4.40
2019-05-22T14:55:11.349Z,3.47
2019-05-22T14:57:40.391Z,3.80
2019-05-22T15:00:10.667Z,3.60
2019-05-22T15:02:39.575Z,3.65
2019-05-22T15:05:08.450Z,3.77
2019-05-22T15:07:37.334Z,4.53
2019-05-22T15:10:07.868Z,3.72
2019-05-22T15:12:36.776Z,4.17
2019-05-22T15:15:06.647Z,4.10
2019-05-22T15:17:35.370Z,4.87
2019-05-22T15:20:07.287Z,5.12
2019-05-22T15:22:36.408Z,5.30
2019-05-22T15:25:07.868Z,5.05
2019-05-22T15:27:37.349Z,5.53
2019-05-22T15:30:08.827Z,5.75
2019-05-22T15:32:38.846Z,5.50
2019-05-22T15:35:08.306Z,5.20
2019-05-22T15:37:38.766Z,5.20
2019-05-22T15:40:08.288Z,5.62
2019-05-22T15:42:43.106Z,5.80
2019-05-22T15:45:22.846Z,6.03
2019-05-22T15:47:55.136Z,5.67
2019-05-22T15:53:43.486Z,5.30
2019-05-22T15:56:14.007Z,5.28
2019-05-22T15:58:45.906Z,5.50
2019-05-22T16:01:16.780Z,5.95
2019-05-22T16:03:46.860Z,5.40
2019-05-22T16:06:17.939Z,5.35
2019-05-22T16:08:47.999Z,5.08
2019-05-22T16:11:17.180Z,5.00
2019-05-22T16:13:46.627Z,4.87
2019-05-22T16:16:18.581Z,5.00
2019-05-22T16:18:47.679Z,5.42
2019-05-22T16:21:16.643Z,4.72
2019-05-22T16:23:46.045Z,4.65
2019-05-22T16:26:16.086Z,4.47
2019-05-22T16:28:46.801Z,4.95
2019-05-22T16:31:16.330Z,5.00
2019-05-22T16:33:46.861Z,4.80
2019-05-22T16:36:16.199Z,4.80
2019-05-22T16:38:45.301Z,4.75
2019-05-22T16:41:15.009Z,4.12
2019-05-22T16:43:49.504Z,4.25
2019-05-22T16:46:17.232Z,4.20
2019-05-22T16:48:48.447Z,4.67
2019-05-22T16:51:18.179Z,4.00
2019-05-22T16:53:53.951Z,5.80
2019-05-22T16:56:25.120Z,4.00
2019-05-22T16:58:55.236Z,4.03
2019-05-22T17:01:26.160Z,4.40
2019-05-22T17:03:57.998Z,3.87
2019-05-22T17:06:28.340Z,4.15
2019-05-22T17:08:58.140Z,3.98
2019-05-22T17:11:28.079Z,3.70
2019-05-22T17:13:59.610Z,4.22
2019-05-22T17:16:29.840Z,4.10
2019-05-22T17:18:58.814Z,4.00
2019-05-22T17:21:28.359Z,3.42
2019-05-22T17:23:59.080Z,3.62
2019-05-22T17:28:57.907Z,3.40
2019-05-22T17:31:28.280Z,3.47
2019-05-22T17:33:57.281Z,3.37
2019-05-22T17:36:27.825Z,3.58
2019-05-22T17:38:58.253Z,3.58
2019-05-22T17:41:28.159Z,2.77
2019-05-22T17:43:58.479Z,3.55
2019-05-22T17:46:28.598Z,3.30
2019-05-22T17:48:59.101Z,3.40
2019-05-22T17:51:29.399Z,3.10
2019-05-22T17:53:59.760Z,3.20
2019-05-22T17:56:28.780Z,3.10
2019-05-22T17:58:57.867Z,3.27
2019-05-22T18:01:27.959Z,2.85
2019-05-22T18:03:58.919Z,2.98
2019-05-22T18:06:29.461Z,3.17
2019-05-22T18:08:58.439Z,3.60
2019-05-22T18:11:27.499Z,3.55
2019-05-22T18:14:01.002Z,3.22
2019-05-22T18:16:30.340Z,3.20
2019-05-22T18:18:59.220Z,4.00
2019-05-22T18:21:30.287Z,3.10
2019-05-22T18:23:59.360Z,3.08
2019-05-22T18:26:28.360Z,3.20
2019-05-22T18:28:59.922Z,3.17
2019-05-22T18:31:30.482Z,3.12
2019-05-22T18:33:59.299Z,3.00
2019-05-22T18:36:28.102Z,3.30
2019-05-22T18:38:58.659Z,3.17
2019-05-22T18:41:27.485Z,3.22
2019-05-22T18:43:57.139Z,3.52
2019-05-22T18:46:26.408Z,3.33
2019-05-22T18:48:55.200Z,3.40
2019-05-22T18:51:25.759Z,3.55
2019-05-22T18:53:54.980Z,3.02
2019-05-22T18:56:24.281Z,3.20
2019-05-22T18:58:53.642Z,3.50
2019-05-22T19:01:22.440Z,3.25
2019-05-22T19:03:51.443Z,3.27
2019-05-22T19:06:30.237Z,3.42
2019-05-22T19:08:55.387Z,3.42
2019-05-22T19:11:25.899Z,2.83
2019-05-22T19:13:55.499Z,3.15
2019-05-22T19:16:24.821Z,3.00
2019-05-22T19:18:53.601Z,3.00
2019-05-22T19:21:22.382Z,2.98
2019-05-22T19:23:52.160Z,3.10
2019-05-22T19:26:21.379Z,3.73
2019-05-22T19:28:52.836Z,2.92
2019-05-22T19:31:21.742Z,3.15
2019-05-22T19:33:52.380Z,3.40
2019-05-22T19:36:22.707Z,3.17
2019-05-22T19:38:51.780Z,3.00
2019-05-22T19:41:21.102Z,2.98
2019-05-22T19:43:49.919Z,3.42
2019-05-22T19:46:20.160Z,2.87
2019-05-22T19:48:50.928Z,2.72
2019-05-22T19:51:20.547Z,3.00
2019-05-22T19:53:50.319Z,2.90
2019-05-22T19:56:22.897Z,3.10
2019-05-22T19:58:49.681Z,2.70
2019-05-22T20:01:19.060Z,2.80
2019-05-22T20:03:48.160Z,2.67
2019-05-22T20:06:17.260Z,2.85
2019-05-22T20:08:46.261Z,2.80
2019-05-22T20:11:15.079Z,2.87
2019-05-22T20:13:43.868Z,2.70
2019-05-22T20:16:12.864Z,3.05
2019-05-22T20:18:41.842Z,2.92
2019-05-22T20:21:10.728Z,2.85
2019-05-22T20:23:40.688Z,2.62
2019-05-22T20:26:09.440Z,2.75
2019-05-22T20:28:38.408Z,2.87
2019-05-22T20:31:08.742Z,3.00
2019-05-22T20:33:37.825Z,2.92
2019-05-22T20:36:07.169Z,2.62
2019-05-22T20:38:36.100Z,2.77
2019-05-22T20:41:04.779Z,2.40
2019-05-22T20:43:33.983Z,2.95
2019-05-22T20:46:04.459Z,2.62
2019-05-22T20:48:36.115Z,2.47
2019-05-22T20:51:06.799Z,2.47
2019-05-22T20:53:53.073Z,2.80
2019-05-22T20:56:09.001Z,2.70
2019-05-22T20:58:39.559Z,2.77
2019-05-22T21:01:09.249Z,2.50
2019-05-22T21:03:38.079Z,2.90
2019-05-22T21:06:10.499Z,2.90
2019-05-22T21:08:41.742Z,2.67
2019-05-22T21:11:14.060Z,2.72
2019-05-22T21:13:43.800Z,2.52
2019-05-22T21:16:12.980Z,2.70
2019-05-22T21:18:49.740Z,2.62
2019-05-22T21:21:21.559Z,2.65
2019-05-22T21:24:07.729Z,2.60
2019-05-22T21:26:26.501Z,2.87
2019-05-22T21:28:59.139Z,3.25
2019-05-22T21:31:30.661Z,2.75
2019-05-22T21:33:59.943Z,2.60
2019-05-22T21:36:30.383Z,2.52
2019-05-22T21:39:00.879Z,2.72
2019-05-22T21:41:30.319Z,2.75
2019-05-22T21:44:02.181Z,2.67
2019-05-22T21:46:30.961Z,2.60
2019-05-22T21:49:01.356Z,2.90
2019-05-22T21:51:31.962Z,2.40
2019-05-22T21:54:01.522Z,2.52
2019-05-22T21:56:30.399Z,2.67
2019-05-22T21:58:59.909Z,2.62
2019-05-22T22:01:30.360Z,2.87
2019-05-22T22:04:00.721Z,2.70
2019-05-22T22:06:33.047Z,2.85
2019-05-22T22:09:00.224Z,2.70
2019-05-22T22:11:29.353Z,2.50
2019-05-22T22:13:58.479Z,2.20
2019-05-22T22:16:28.479Z,2.72
2019-05-22T22:18:57.559Z,2.92
2019-05-22T22:21:28.399Z,2.62
2019-05-22T22:23:57.299Z,2.80
2019-05-22T22:26:28.993Z,2.70
2019-05-22T22:28:59.899Z,2.70
2019-05-22T22:34:01.267Z,2.50
2019-05-22T22:36:30.179Z,2.47
2019-05-22T22:38:59.239Z,2.83
2019-05-22T22:41:28.441Z,3.02
2019-05-22T22:43:59.274Z,2.65
2019-05-22T22:46:40.160Z,2.50
2019-05-22T22:51:39.488Z,2.70
2019-05-22T22:54:08.480Z,2.65
2019-05-22T22:56:37.840Z,2.45
2019-05-22T22:59:08.321Z,2.50
2019-05-22T23:01:38.759Z,2.33
2019-05-22T23:04:08.139Z,2.67
2019-05-22T23:06:38.540Z,2.60
2019-05-22T23:09:10.619Z,2.27
2019-05-22T23:11:42.179Z,2.60
2019-05-22T23:14:12.459Z,2.90
2019-05-22T23:16:44.879Z,2.40
2019-05-22T23:19:18.384Z,2.90
2019-05-22T23:21:47.884Z,2.67
2019-05-22T23:24:17.079Z,2.42
2019-05-22T23:26:47.600Z,2.40
2019-05-22T23:29:18.099Z,2.77
2019-05-22T23:31:46.919Z,2.52
2019-05-22T23:34:15.987Z,2.67
2019-05-22T23:36:45.607Z,2.60
2019-05-22T23:39:15.480Z,2.47
2019-05-22T23:41:45.460Z,2.40
2019-05-22T23:44:14.545Z,3.02
2019-05-22T23:46:43.978Z,2.40
2019-05-22T23:49:13.039Z,2.17
2019-05-22T23:51:42.462Z,2.70
2019-05-22T23:54:12.839Z,2.45
2019-05-22T23:56:43.388Z,2.45
2019-05-22T23:59:12.200Z,2.75
